sensor_id;sensor_type;location;lat;lon;timestamp;P1;durP1;ratioP1;P2;durP2;ratioP2
11016;SDS011;54687;50.800;6.772;2023-04-09T00:02:26;27.00;;;24.65;;
11016;SDS011;54687;50.800;6.772;2023-04-09T00:04:52;25.67;;;23.48;;
11016;SDS011;54687;50.800;6.772;2023-04-09T00:07:19;25.80;;;23.50;;
11016;SDS011;54687;50.800;6.772;2023-04-09T00:09:45;25.13;;;22.83;;
11016;SDS011;54687;50.800;6.772;2023-04-09T00:12:13;26.02;;;23.73;;
11016;SDS011;54687;50.800;6.772;2023-04-09T00:14:40;26.25;;;24.00;;
11016;SDS011;54687;50.800;6.772;2023-04-09T00:17:06;26.15;;;23.88;;
11016;SDS011;54687;50.800;6.772;2023-04-09T00:19:33;28.73;;;26.15;;
11016;SDS011;54687;50.800;6.772;2023-04-09T00:22:00;29.50;;;26.92;;
11016;SDS011;54687;50.800;6.772;2023-04-09T00:24:26;29.00;;;26.45;;
11016;SDS011;54687;50.800;6.772;2023-04-09T00:26:53;27.83;;;25.42;;
11016;SDS011;54687;50.800;6.772;2023-04-09T00:29:21;26.40;;;23.98;;
11016;SDS011;54687;50.800;6.772;2023-04-09T00:31:47;26.50;;;24.10;;
11016;SDS011;54687;50.800;6.772;2023-04-09T00:34:14;28.05;;;25.45;;
11016;SDS011;54687;50.800;6.772;2023-04-09T00:36:40;27.40;;;25.00;;
11016;SDS011;54687;50.800;6.772;2023-04-09T00:39:07;26.88;;;24.48;;
11016;SDS011;54687;50.800;6.772;2023-04-09T00:41:34;26.58;;;24.17;;
11016;SDS011;54687;50.800;6.772;2023-04-09T00:44:00;27.13;;;24.67;;
11016;SDS011;54687;50.800;6.772;2023-04-09T00:46:28;25.48;;;23.17;;
11016;SDS011;54687;50.800;6.772;2023-04-09T00:48:56;27.20;;;24.77;;
11016;SDS011;54687;50.800;6.772;2023-04-09T00:51:23;27.05;;;24.52;;
11016;SDS011;54687;50.800;6.772;2023-04-09T00:53:50;26.65;;;24.25;;
11016;SDS011;54687;50.800;6.772;2023-04-09T00:56:18;28.45;;;25.95;;
11016;SDS011;54687;50.800;6.772;2023-04-09T00:58:47;27.38;;;24.98;;
11016;SDS011;54687;50.800;6.772;2023-04-09T01:01:13;27.52;;;25.08;;
11016;SDS011;54687;50.800;6.772;2023-04-09T01:03:41;29.20;;;26.50;;
11016;SDS011;54687;50.800;6.772;2023-04-09T01:06:09;28.52;;;25.98;;
11016;SDS011;54687;50.800;6.772;2023-04-09T01:08:40;26.88;;;24.48;;
11016;SDS011;54687;50.800;6.772;2023-04-09T01:11:23;26.88;;;24.55;;
11016;SDS011;54687;50.800;6.772;2023-04-09T01:13:59;27.00;;;24.60;;
11016;SDS011;54687;50.800;6.772;2023-04-09T01:16:31;28.08;;;25.48;;
11016;SDS011;54687;50.800;6.772;2023-04-09T01:19:05;27.25;;;24.75;;
11016;SDS011;54687;50.800;6.772;2023-04-09T01:21:35;27.52;;;25.02;;
11016;SDS011;54687;50.800;6.772;2023-04-09T01:24:08;26.10;;;23.70;;
11016;SDS011;54687;50.800;6.772;2023-04-09T01:26:52;26.27;;;23.77;;
11016;SDS011;54687;50.800;6.772;2023-04-09T01:29:25;26.60;;;24.13;;
11016;SDS011;54687;50.800;6.772;2023-04-09T01:31:56;26.92;;;24.52;;
11016;SDS011;54687;50.800;6.772;2023-04-09T01:34:25;30.85;;;27.95;;
11016;SDS011;54687;50.800;6.772;2023-04-09T01:36:54;30.27;;;27.58;;
11016;SDS011;54687;50.800;6.772;2023-04-09T01:39:22;28.67;;;26.05;;
11016;SDS011;54687;50.800;6.772;2023-04-09T01:41:50;27.15;;;24.73;;
11016;SDS011;54687;50.800;6.772;2023-04-09T01:44:17;26.02;;;23.67;;
11016;SDS011;54687;50.800;6.772;2023-04-09T01:46:46;27.17;;;24.67;;
11016;SDS011;54687;50.800;6.772;2023-04-09T01:49:14;26.17;;;23.80;;
11016;SDS011;54687;50.800;6.772;2023-04-09T01:51:42;28.15;;;25.50;;
11016;SDS011;54687;50.800;6.772;2023-04-09T01:54:09;30.08;;;27.27;;
11016;SDS011;54687;50.800;6.772;2023-04-09T01:56:39;32.63;;;29.63;;
11016;SDS011;54687;50.800;6.772;2023-04-09T01:59:07;33.38;;;30.25;;
11016;SDS011;54687;50.800;6.772;2023-04-09T02:01:34;29.75;;;27.15;;
11016;SDS011;54687;50.800;6.772;2023-04-09T02:04:09;29.40;;;26.70;;
11016;SDS011;54687;50.800;6.772;2023-04-09T02:06:51;34.78;;;31.40;;
11016;SDS011;54687;50.800;6.772;2023-04-09T02:09:22;34.05;;;31.00;;
11016;SDS011;54687;50.800;6.772;2023-04-09T02:11:50;33.63;;;30.63;;
11016;SDS011;54687;50.800;6.772;2023-04-09T02:14:18;33.15;;;30.15;;
11016;SDS011;54687;50.800;6.772;2023-04-09T02:16:46;34.10;;;30.80;;
11016;SDS011;54687;50.800;6.772;2023-04-09T02:19:13;31.50;;;28.60;;
11016;SDS011;54687;50.800;6.772;2023-04-09T02:21:40;28.30;;;25.80;;
11016;SDS011;54687;50.800;6.772;2023-04-09T02:24:08;29.50;;;26.80;;
11016;SDS011;54687;50.800;6.772;2023-04-09T02:26:35;26.83;;;24.33;;
11016;SDS011;54687;50.800;6.772;2023-04-09T02:29:01;29.55;;;26.73;;
11016;SDS011;54687;50.800;6.772;2023-04-09T02:31:28;28.27;;;25.70;;
11016;SDS011;54687;50.800;6.772;2023-04-09T02:33:55;29.25;;;26.55;;
11016;SDS011;54687;50.800;6.772;2023-04-09T02:36:23;29.55;;;26.88;;
11016;SDS011;54687;50.800;6.772;2023-04-09T02:38:50;29.40;;;26.70;;
11016;SDS011;54687;50.800;6.772;2023-04-09T02:41:16;29.77;;;27.08;;
11016;SDS011;54687;50.800;6.772;2023-04-09T02:43:43;32.13;;;29.10;;
11016;SDS011;54687;50.800;6.772;2023-04-09T02:46:09;30.52;;;27.50;;
11016;SDS011;54687;50.800;6.772;2023-04-09T02:48:36;30.38;;;27.58;;
11016;SDS011;54687;50.800;6.772;2023-04-09T02:51:03;27.45;;;25.00;;
11016;SDS011;54687;50.800;6.772;2023-04-09T02:53:31;28.17;;;25.48;;
11016;SDS011;54687;50.800;6.772;2023-04-09T02:55:58;27.88;;;25.38;;
11016;SDS011;54687;50.800;6.772;2023-04-09T02:58:25;27.60;;;25.02;;
11016;SDS011;54687;50.800;6.772;2023-04-09T03:00:51;28.65;;;25.92;;
11016;SDS011;54687;50.800;6.772;2023-04-09T03:03:18;27.35;;;24.85;;
11016;SDS011;54687;50.800;6.772;2023-04-09T03:05:44;28.30;;;25.58;;
11016;SDS011;54687;50.800;6.772;2023-04-09T03:08:11;27.23;;;24.73;;
11016;SDS011;54687;50.800;6.772;2023-04-09T03:10:39;25.15;;;22.85;;
11016;SDS011;54687;50.800;6.772;2023-04-09T03:13:05;25.63;;;23.17;;
11016;SDS011;54687;50.800;6.772;2023-04-09T03:15:32;23.85;;;21.75;;
11016;SDS011;54687;50.800;6.772;2023-04-09T03:17:58;25.33;;;23.02;;
11016;SDS011;54687;50.800;6.772;2023-04-09T03:20:25;26.00;;;23.60;;
11016;SDS011;54687;50.800;6.772;2023-04-09T03:22:52;25.55;;;23.25;;
11016;SDS011;54687;50.800;6.772;2023-04-09T03:25:18;25.70;;;23.30;;
11016;SDS011;54687;50.800;6.772;2023-04-09T03:27:46;25.58;;;23.17;;
11016;SDS011;54687;50.800;6.772;2023-04-09T03:30:13;27.67;;;25.10;;
11016;SDS011;54687;50.800;6.772;2023-04-09T03:32:40;26.70;;;24.15;;
11016;SDS011;54687;50.800;6.772;2023-04-09T03:35:07;28.08;;;25.27;;
11016;SDS011;54687;50.800;6.772;2023-04-09T03:37:33;28.27;;;25.67;;
11016;SDS011;54687;50.800;6.772;2023-04-09T03:40:00;27.23;;;24.55;;
11016;SDS011;54687;50.800;6.772;2023-04-09T03:42:28;28.13;;;25.50;;
11016;SDS011;54687;50.800;6.772;2023-04-09T03:44:56;26.85;;;24.35;;
11016;SDS011;54687;50.800;6.772;2023-04-09T03:47:23;26.20;;;23.85;;
11016;SDS011;54687;50.800;6.772;2023-04-09T03:49:49;28.08;;;25.40;;
11016;SDS011;54687;50.800;6.772;2023-04-09T03:52:16;26.38;;;23.98;;
11016;SDS011;54687;50.800;6.772;2023-04-09T03:54:42;25.45;;;23.10;;
11016;SDS011;54687;50.800;6.772;2023-04-09T03:57:10;26.23;;;23.92;;
11016;SDS011;54687;50.800;6.772;2023-04-09T03:59:36;28.00;;;25.40;;
11016;SDS011;54687;50.800;6.772;2023-04-09T04:02:04;25.15;;;22.77;;
11016;SDS011;54687;50.800;6.772;2023-04-09T04:04:30;23.67;;;21.58;;
11016;SDS011;54687;50.800;6.772;2023-04-09T04:06:57;22.52;;;20.63;;
11016;SDS011;54687;50.800;6.772;2023-04-09T04:09:23;22.75;;;20.73;;
11016;SDS011;54687;50.800;6.772;2023-04-09T04:11:50;22.83;;;20.83;;
11016;SDS011;54687;50.800;6.772;2023-04-09T04:14:17;23.42;;;21.33;;
11016;SDS011;54687;50.800;6.772;2023-04-09T04:16:43;22.30;;;20.30;;
11016;SDS011;54687;50.800;6.772;2023-04-09T04:19:11;23.98;;;21.77;;
11016;SDS011;54687;50.800;6.772;2023-04-09T04:21:38;22.95;;;20.75;;
11016;SDS011;54687;50.800;6.772;2023-04-09T04:24:05;23.00;;;20.85;;
11016;SDS011;54687;50.800;6.772;2023-04-09T04:26:31;23.52;;;21.30;;
11016;SDS011;54687;50.800;6.772;2023-04-09T04:28:58;25.33;;;22.95;;
11016;SDS011;54687;50.800;6.772;2023-04-09T04:31:24;29.05;;;26.08;;
11016;SDS011;54687;50.800;6.772;2023-04-09T04:33:51;25.80;;;23.50;;
11016;SDS011;54687;50.800;6.772;2023-04-09T04:36:19;27.05;;;24.45;;
11016;SDS011;54687;50.800;6.772;2023-04-09T04:38:45;25.00;;;22.55;;
11016;SDS011;54687;50.800;6.772;2023-04-09T04:41:12;25.58;;;23.02;;
11016;SDS011;54687;50.800;6.772;2023-04-09T04:43:38;24.08;;;21.67;;
11016;SDS011;54687;50.800;6.772;2023-04-09T04:46:06;24.35;;;21.95;;
11016;SDS011;54687;50.800;6.772;2023-04-09T04:48:32;25.23;;;22.83;;
11016;SDS011;54687;50.800;6.772;2023-04-09T04:50:59;27.80;;;22.88;;
11016;SDS011;54687;50.800;6.772;2023-04-09T04:53:28;24.30;;;22.00;;
11016;SDS011;54687;50.800;6.772;2023-04-09T04:55:54;24.02;;;21.67;;
11016;SDS011;54687;50.800;6.772;2023-04-09T04:58:21;22.13;;;20.08;;
11016;SDS011;54687;50.800;6.772;2023-04-09T05:00:48;22.83;;;20.63;;
11016;SDS011;54687;50.800;6.772;2023-04-09T05:03:14;23.33;;;21.13;;
11016;SDS011;54687;50.800;6.772;2023-04-09T05:05:41;24.42;;;21.95;;
11016;SDS011;54687;50.800;6.772;2023-04-09T05:08:07;24.35;;;22.15;;
11016;SDS011;54687;50.800;6.772;2023-04-09T05:10:35;23.30;;;21.10;;
11016;SDS011;54687;50.800;6.772;2023-04-09T05:13:02;22.83;;;20.77;;
11016;SDS011;54687;50.800;6.772;2023-04-09T05:15:28;23.00;;;20.80;;
11016;SDS011;54687;50.800;6.772;2023-04-09T05:17:55;23.38;;;21.15;;
11016;SDS011;54687;50.800;6.772;2023-04-09T05:20:22;23.58;;;21.38;;
11016;SDS011;54687;50.800;6.772;2023-04-09T05:22:48;23.70;;;21.40;;
11016;SDS011;54687;50.800;6.772;2023-04-09T05:25:15;23.27;;;20.95;;
11016;SDS011;54687;50.800;6.772;2023-04-09T05:27:43;23.75;;;21.33;;
11016;SDS011;54687;50.800;6.772;2023-04-09T05:30:10;25.13;;;22.70;;
11016;SDS011;54687;50.800;6.772;2023-04-09T05:32:37;23.77;;;21.42;;
11016;SDS011;54687;50.800;6.772;2023-04-09T05:35:04;23.63;;;21.38;;
11016;SDS011;54687;50.800;6.772;2023-04-09T05:37:30;23.83;;;21.45;;
11016;SDS011;54687;50.800;6.772;2023-04-09T05:39:57;22.02;;;19.92;;
11016;SDS011;54687;50.800;6.772;2023-04-09T05:42:24;23.00;;;20.80;;
11016;SDS011;54687;50.800;6.772;2023-04-09T05:44:52;24.73;;;22.25;;
11016;SDS011;54687;50.800;6.772;2023-04-09T05:47:18;25.20;;;22.90;;
11016;SDS011;54687;50.800;6.772;2023-04-09T05:49:45;24.80;;;22.42;;
11016;SDS011;54687;50.800;6.772;2023-04-09T05:52:11;26.60;;;24.10;;
11016;SDS011;54687;50.800;6.772;2023-04-09T05:54:38;22.85;;;20.70;;
11016;SDS011;54687;50.800;6.772;2023-04-09T05:57:05;24.20;;;21.90;;
11016;SDS011;54687;50.800;6.772;2023-04-09T05:59:31;25.45;;;23.05;;
11016;SDS011;54687;50.800;6.772;2023-04-09T06:02:00;24.95;;;22.58;;
11016;SDS011;54687;50.800;6.772;2023-04-09T06:04:26;24.83;;;22.42;;
11016;SDS011;54687;50.800;6.772;2023-04-09T06:06:53;26.52;;;23.92;;
11016;SDS011;54687;50.800;6.772;2023-04-09T06:09:19;25.98;;;23.48;;
11016;SDS011;54687;50.800;6.772;2023-04-09T06:11:46;25.83;;;23.33;;
11016;SDS011;54687;50.800;6.772;2023-04-09T06:14:12;27.67;;;24.90;;
11016;SDS011;54687;50.800;6.772;2023-04-09T06:16:42;29.55;;;26.55;;
11016;SDS011;54687;50.800;6.772;2023-04-09T06:19:10;27.38;;;24.58;;
11016;SDS011;54687;50.800;6.772;2023-04-09T06:21:37;25.58;;;23.08;;
11016;SDS011;54687;50.800;6.772;2023-04-09T06:24:05;25.27;;;22.80;;
11016;SDS011;54687;50.800;6.772;2023-04-09T06:26:32;27.65;;;25.10;;
11016;SDS011;54687;50.800;6.772;2023-04-09T06:28:58;27.15;;;24.45;;
11016;SDS011;54687;50.800;6.772;2023-04-09T06:31:25;27.67;;;24.90;;
11016;SDS011;54687;50.800;6.772;2023-04-09T06:33:51;27.48;;;24.85;;
11016;SDS011;54687;50.800;6.772;2023-04-09T06:36:19;26.52;;;24.02;;
11016;SDS011;54687;50.800;6.772;2023-04-09T06:38:46;27.10;;;24.35;;
11016;SDS011;54687;50.800;6.772;2023-04-09T06:41:13;27.45;;;24.85;;
11016;SDS011;54687;50.800;6.772;2023-04-09T06:43:39;27.30;;;24.60;;
11016;SDS011;54687;50.800;6.772;2023-04-09T06:46:06;26.13;;;23.63;;
11016;SDS011;54687;50.800;6.772;2023-04-09T06:48:32;26.33;;;23.85;;
11016;SDS011;54687;50.800;6.772;2023-04-09T06:50:59;28.75;;;25.88;;
11016;SDS011;54687;50.800;6.772;2023-04-09T06:53:27;26.70;;;24.10;;
11016;SDS011;54687;50.800;6.772;2023-04-09T06:55:53;28.70;;;26.00;;
11016;SDS011;54687;50.800;6.772;2023-04-09T06:58:20;25.73;;;23.13;;
11016;SDS011;54687;50.800;6.772;2023-04-09T07:00:46;27.88;;;25.25;;
11016;SDS011;54687;50.800;6.772;2023-04-09T07:03:13;26.67;;;24.15;;
11016;SDS011;54687;50.800;6.772;2023-04-09T07:05:40;26.25;;;23.73;;
11016;SDS011;54687;50.800;6.772;2023-04-09T07:08:07;25.20;;;22.80;;
11016;SDS011;54687;50.800;6.772;2023-04-09T07:10:34;25.65;;;23.13;;
11016;SDS011;54687;50.800;6.772;2023-04-09T07:13:01;25.08;;;22.67;;
11016;SDS011;54687;50.800;6.772;2023-04-09T07:15:28;23.42;;;21.23;;
11016;SDS011;54687;50.800;6.772;2023-04-09T07:17:55;23.17;;;20.98;;
11016;SDS011;54687;50.800;6.772;2023-04-09T07:20:21;22.58;;;20.10;;
11016;SDS011;54687;50.800;6.772;2023-04-09T07:22:48;20.95;;;18.85;;
11016;SDS011;54687;50.800;6.772;2023-04-09T07:25:15;22.40;;;20.40;;
11016;SDS011;54687;50.800;6.772;2023-04-09T07:27:43;33.50;;;30.20;;
11016;SDS011;54687;50.800;6.772;2023-04-09T07:30:10;20.33;;;18.42;;
11016;SDS011;54687;50.800;6.772;2023-04-09T07:32:36;20.35;;;18.38;;
11016;SDS011;54687;50.800;6.772;2023-04-09T07:35:05;20.00;;;18.10;;
11016;SDS011;54687;50.800;6.772;2023-04-09T07:37:33;18.75;;;16.95;;
11016;SDS011;54687;50.800;6.772;2023-04-09T07:40:00;17.95;;;16.20;;
11016;SDS011;54687;50.800;6.772;2023-04-09T07:42:28;16.52;;;14.98;;
11016;SDS011;54687;50.800;6.772;2023-04-09T07:44:58;17.65;;;15.95;;
11016;SDS011;54687;50.800;6.772;2023-04-09T07:47:25;17.45;;;15.75;;
11016;SDS011;54687;50.800;6.772;2023-04-09T07:49:52;17.77;;;16.08;;
11016;SDS011;54687;50.800;6.772;2023-04-09T07:52:19;18.20;;;16.27;;
11016;SDS011;54687;50.800;6.772;2023-04-09T07:54:45;17.25;;;15.55;;
11016;SDS011;54687;50.800;6.772;2023-04-09T07:57:12;15.98;;;14.48;;
11016;SDS011;54687;50.800;6.772;2023-04-09T07:59:38;16.30;;;14.80;;
11016;SDS011;54687;50.800;6.772;2023-04-09T08:02:07;15.80;;;14.27;;
11016;SDS011;54687;50.800;6.772;2023-04-09T08:04:33;14.38;;;12.93;;
11016;SDS011;54687;50.800;6.772;2023-04-09T08:07:00;14.35;;;12.95;;
11016;SDS011;54687;50.800;6.772;2023-04-09T08:09:27;13.98;;;12.63;;
11016;SDS011;54687;50.800;6.772;2023-04-09T08:11:53;13.18;;;11.98;;
11016;SDS011;54687;50.800;6.772;2023-04-09T08:14:20;12.63;;;11.43;;
11016;SDS011;54687;50.800;6.772;2023-04-09T08:16:47;12.43;;;11.13;;
11016;SDS011;54687;50.800;6.772;2023-04-09T08:19:16;12.05;;;10.95;;
11016;SDS011;54687;50.800;6.772;2023-04-09T08:21:44;11.57;;;10.48;;
11016;SDS011;54687;50.800;6.772;2023-04-09T08:24:12;9.90;;;8.75;;
11016;SDS011;54687;50.800;6.772;2023-04-09T08:26:40;11.55;;;10.48;;
11016;SDS011;54687;50.800;6.772;2023-04-09T08:29:07;11.35;;;10.25;;
11016;SDS011;54687;50.800;6.772;2023-04-09T08:31:35;9.75;;;8.85;;
11016;SDS011;54687;50.800;6.772;2023-04-09T08:34:02;10.00;;;9.00;;
11016;SDS011;54687;50.800;6.772;2023-04-09T08:36:30;8.95;;;8.15;;
11016;SDS011;54687;50.800;6.772;2023-04-09T08:38:59;10.18;;;9.18;;
11016;SDS011;54687;50.800;6.772;2023-04-09T08:41:26;9.48;;;8.65;;
11016;SDS011;54687;50.800;6.772;2023-04-09T08:43:53;9.20;;;8.30;;
11016;SDS011;54687;50.800;6.772;2023-04-09T08:46:21;10.13;;;9.15;;
11016;SDS011;54687;50.800;6.772;2023-04-09T08:48:48;9.13;;;8.32;;
11016;SDS011;54687;50.800;6.772;2023-04-09T08:51:16;8.68;;;7.88;;
11016;SDS011;54687;50.800;6.772;2023-04-09T08:53:46;8.55;;;7.75;;
11016;SDS011;54687;50.800;6.772;2023-04-09T08:56:16;9.10;;;8.27;;
11016;SDS011;54687;50.800;6.772;2023-04-09T08:58:43;6.97;;;6.38;;
11016;SDS011;54687;50.800;6.772;2023-04-09T09:01:18;6.93;;;6.22;;
11016;SDS011;54687;50.800;6.772;2023-04-09T09:03:52;6.35;;;5.85;;
11016;SDS011;54687;50.800;6.772;2023-04-09T09:06:21;6.47;;;5.90;;
11016;SDS011;54687;50.800;6.772;2023-04-09T09:09:00;5.95;;;4.75;;
11016;SDS011;54687;50.800;6.772;2023-04-09T09:11:28;6.03;;;5.05;;
11016;SDS011;54687;50.800;6.772;2023-04-09T09:14:02;6.00;;;5.32;;
11016;SDS011;54687;50.800;6.772;2023-04-09T09:16:30;6.10;;;5.50;;
11016;SDS011;54687;50.800;6.772;2023-04-09T09:18:58;6.30;;;5.75;;
11016;SDS011;54687;50.800;6.772;2023-04-09T09:21:26;5.78;;;5.28;;
11016;SDS011;54687;50.800;6.772;2023-04-09T09:23:54;5.60;;;5.10;;
11016;SDS011;54687;50.800;6.772;2023-04-09T09:26:23;5.68;;;5.18;;
11016;SDS011;54687;50.800;6.772;2023-04-09T09:28:51;5.95;;;5.38;;
11016;SDS011;54687;50.800;6.772;2023-04-09T09:31:19;6.13;;;5.63;;
11016;SDS011;54687;50.800;6.772;2023-04-09T09:33:47;5.50;;;5.00;;
11016;SDS011;54687;50.800;6.772;2023-04-09T09:36:14;5.82;;;5.32;;
11016;SDS011;54687;50.800;6.772;2023-04-09T09:38:51;5.68;;;5.18;;
11016;SDS011;54687;50.800;6.772;2023-04-09T09:41:19;6.07;;;5.47;;
11016;SDS011;54687;50.800;6.772;2023-04-09T09:43:47;5.35;;;4.85;;
11016;SDS011;54687;50.800;6.772;2023-04-09T09:46:14;5.72;;;5.20;;
11016;SDS011;54687;50.800;6.772;2023-04-09T09:48:43;5.82;;;5.22;;
11016;SDS011;54687;50.800;6.772;2023-04-09T09:51:11;6.45;;;5.85;;
11016;SDS011;54687;50.800;6.772;2023-04-09T09:53:40;7.30;;;6.68;;
11016;SDS011;54687;50.800;6.772;2023-04-09T09:56:10;6.15;;;5.55;;
11016;SDS011;54687;50.800;6.772;2023-04-09T09:58:40;6.22;;;5.65;;
11016;SDS011;54687;50.800;6.772;2023-04-09T10:01:12;5.88;;;5.38;;
11016;SDS011;54687;50.800;6.772;2023-04-09T10:03:42;5.63;;;5.22;;
11016;SDS011;54687;50.800;6.772;2023-04-09T10:06:10;6.20;;;5.60;;
11016;SDS011;54687;50.800;6.772;2023-04-09T10:08:38;6.13;;;5.60;;
11016;SDS011;54687;50.800;6.772;2023-04-09T10:11:07;5.32;;;4.93;;
11016;SDS011;54687;50.800;6.772;2023-04-09T10:13:34;5.47;;;5.07;;
11016;SDS011;54687;50.800;6.772;2023-04-09T10:16:04;5.93;;;5.43;;
11016;SDS011;54687;50.800;6.772;2023-04-09T10:18:32;5.68;;;5.25;;
11016;SDS011;54687;50.800;6.772;2023-04-09T10:21:00;6.82;;;6.22;;
11016;SDS011;54687;50.800;6.772;2023-04-09T10:23:33;6.75;;;6.15;;
11016;SDS011;54687;50.800;6.772;2023-04-09T10:26:03;6.63;;;6.00;;
11016;SDS011;54687;50.800;6.772;2023-04-09T10:28:30;7.07;;;6.22;;
11016;SDS011;54687;50.800;6.772;2023-04-09T10:30:57;7.00;;;6.40;;
11016;SDS011;54687;50.800;6.772;2023-04-09T10:33:25;7.25;;;6.65;;
11016;SDS011;54687;50.800;6.772;2023-04-09T10:35:55;7.10;;;6.40;;
11016;SDS011;54687;50.800;6.772;2023-04-09T10:38:32;8.55;;;7.63;;
11016;SDS011;54687;50.800;6.772;2023-04-09T10:41:05;8.65;;;7.88;;
11016;SDS011;54687;50.800;6.772;2023-04-09T10:43:33;6.70;;;6.10;;
11016;SDS011;54687;50.800;6.772;2023-04-09T10:46:03;7.32;;;6.68;;
11016;SDS011;54687;50.800;6.772;2023-04-09T10:48:31;6.32;;;5.82;;
11016;SDS011;54687;50.800;6.772;2023-04-09T10:51:00;6.72;;;5.93;;
11016;SDS011;54687;50.800;6.772;2023-04-09T10:53:28;6.05;;;5.57;;
11016;SDS011;54687;50.800;6.772;2023-04-09T10:55:54;7.00;;;6.40;;
11016;SDS011;54687;50.800;6.772;2023-04-09T10:58:21;7.57;;;6.88;;
11016;SDS011;54687;50.800;6.772;2023-04-09T11:00:48;7.03;;;6.32;;
11016;SDS011;54687;50.800;6.772;2023-04-09T11:03:18;8.35;;;7.65;;
11016;SDS011;54687;50.800;6.772;2023-04-09T11:05:47;8.82;;;8.00;;
11016;SDS011;54687;50.800;6.772;2023-04-09T11:08:18;7.10;;;6.50;;
11016;SDS011;54687;50.800;6.772;2023-04-09T11:10:46;6.13;;;5.63;;
11016;SDS011;54687;50.800;6.772;2023-04-09T11:13:13;6.75;;;6.15;;
11016;SDS011;54687;50.800;6.772;2023-04-09T11:15:42;7.90;;;7.20;;
11016;SDS011;54687;50.800;6.772;2023-04-09T11:18:12;7.43;;;6.72;;
11016;SDS011;54687;50.800;6.772;2023-04-09T11:20:40;8.10;;;6.43;;
11016;SDS011;54687;50.800;6.772;2023-04-09T11:23:06;6.97;;;6.38;;
11016;SDS011;54687;50.800;6.772;2023-04-09T11:25:35;6.25;;;5.72;;
11016;SDS011;54687;50.800;6.772;2023-04-09T11:28:02;7.93;;;6.78;;
11016;SDS011;54687;50.800;6.772;2023-04-09T11:30:30;6.40;;;5.90;;
11016;SDS011;54687;50.800;6.772;2023-04-09T11:32:58;7.03;;;6.43;;
11016;SDS011;54687;50.800;6.772;2023-04-09T11:35:25;7.57;;;6.97;;
11016;SDS011;54687;50.800;6.772;2023-04-09T11:37:52;7.45;;;6.85;;
11016;SDS011;54687;50.800;6.772;2023-04-09T11:40:19;7.97;;;7.28;;
11016;SDS011;54687;50.800;6.772;2023-04-09T11:42:49;7.07;;;6.43;;
11016;SDS011;54687;50.800;6.772;2023-04-09T11:45:18;7.28;;;6.65;;
11016;SDS011;54687;50.800;6.772;2023-04-09T11:47:46;6.60;;;6.00;;
11016;SDS011;54687;50.800;6.772;2023-04-09T11:50:13;6.55;;;5.95;;
11016;SDS011;54687;50.800;6.772;2023-04-09T11:52:40;6.40;;;5.90;;
11016;SDS011;54687;50.800;6.772;2023-04-09T11:55:08;5.93;;;5.43;;
11016;SDS011;54687;50.800;6.772;2023-04-09T11:57:39;6.15;;;5.65;;
11016;SDS011;54687;50.800;6.772;2023-04-09T12:00:10;6.65;;;6.15;;
11016;SDS011;54687;50.800;6.772;2023-04-09T12:02:39;6.32;;;5.80;;
11016;SDS011;54687;50.800;6.772;2023-04-09T12:05:09;6.85;;;6.25;;
11016;SDS011;54687;50.800;6.772;2023-04-09T12:07:38;6.45;;;5.85;;
11016;SDS011;54687;50.800;6.772;2023-04-09T12:10:05;6.53;;;5.93;;
11016;SDS011;54687;50.800;6.772;2023-04-09T12:12:40;6.25;;;5.75;;
11016;SDS011;54687;50.800;6.772;2023-04-09T12:15:19;6.03;;;5.53;;
11016;SDS011;54687;50.800;6.772;2023-04-09T12:17:47;6.03;;;5.53;;
11016;SDS011;54687;50.800;6.772;2023-04-09T12:20:24;6.20;;;5.70;;
11016;SDS011;54687;50.800;6.772;2023-04-09T12:22:59;5.97;;;5.38;;
11016;SDS011;54687;50.800;6.772;2023-04-09T12:25:28;6.43;;;5.93;;
11016;SDS011;54687;50.800;6.772;2023-04-09T12:27:55;5.70;;;5.20;;
11016;SDS011;54687;50.800;6.772;2023-04-09T12:30:23;5.88;;;5.38;;
11016;SDS011;54687;50.800;6.772;2023-04-09T12:32:51;6.50;;;5.90;;
11016;SDS011;54687;50.800;6.772;2023-04-09T12:35:18;6.10;;;5.60;;
11016;SDS011;54687;50.800;6.772;2023-04-09T12:37:45;6.95;;;6.25;;
11016;SDS011;54687;50.800;6.772;2023-04-09T12:40:11;5.72;;;5.32;;
11016;SDS011;54687;50.800;6.772;2023-04-09T12:42:39;5.95;;;5.45;;
11016;SDS011;54687;50.800;6.772;2023-04-09T12:45:06;7.30;;;6.07;;
11016;SDS011;54687;50.800;6.772;2023-04-09T12:47:37;6.80;;;6.20;;
11016;SDS011;54687;50.800;6.772;2023-04-09T12:50:05;5.68;;;5.18;;
11016;SDS011;54687;50.800;6.772;2023-04-09T12:52:34;6.78;;;6.18;;
11016;SDS011;54687;50.800;6.772;2023-04-09T12:55:00;6.13;;;5.63;;
11016;SDS011;54687;50.800;6.772;2023-04-09T12:57:27;5.95;;;5.22;;
11016;SDS011;54687;50.800;6.772;2023-04-09T12:59:54;6.80;;;5.85;;
11016;SDS011;54687;50.800;6.772;2023-04-09T13:02:21;6.15;;;5.65;;
11016;SDS011;54687;50.800;6.772;2023-04-09T13:04:50;7.00;;;5.78;;
11016;SDS011;54687;50.800;6.772;2023-04-09T13:07:17;6.82;;;6.22;;
11016;SDS011;54687;50.800;6.772;2023-04-09T13:09:44;6.22;;;5.72;;
11016;SDS011;54687;50.800;6.772;2023-04-09T13:12:12;6.47;;;5.95;;
11016;SDS011;54687;50.800;6.772;2023-04-09T13:14:40;6.85;;;6.25;;
11016;SDS011;54687;50.800;6.772;2023-04-09T13:17:08;6.28;;;5.78;;
11016;SDS011;54687;50.800;6.772;2023-04-09T13:19:34;6.70;;;6.15;;
11016;SDS011;54687;50.800;6.772;2023-04-09T13:22:03;6.40;;;5.90;;
11016;SDS011;54687;50.800;6.772;2023-04-09T13:24:32;6.82;;;6.22;;
11016;SDS011;54687;50.800;6.772;2023-04-09T13:26:59;7.03;;;6.43;;
11016;SDS011;54687;50.800;6.772;2023-04-09T13:29:26;6.38;;;5.78;;
11016;SDS011;54687;50.800;6.772;2023-04-09T13:31:53;6.63;;;6.05;;
11016;SDS011;54687;50.800;6.772;2023-04-09T13:34:21;6.47;;;5.97;;
11016;SDS011;54687;50.800;6.772;2023-04-09T13:36:48;6.45;;;5.90;;
11016;SDS011;54687;50.800;6.772;2023-04-09T13:39:16;6.35;;;5.85;;
11016;SDS011;54687;50.800;6.772;2023-04-09T13:41:42;6.40;;;5.90;;
11016;SDS011;54687;50.800;6.772;2023-04-09T13:44:09;7.60;;;6.00;;
11016;SDS011;54687;50.800;6.772;2023-04-09T13:46:35;7.03;;;6.32;;
11016;SDS011;54687;50.800;6.772;2023-04-09T13:49:02;5.68;;;5.25;;
11016;SDS011;54687;50.800;6.772;2023-04-09T13:51:29;6.65;;;6.05;;
11016;SDS011;54687;50.800;6.772;2023-04-09T13:53:55;7.03;;;6.43;;
11016;SDS011;54687;50.800;6.772;2023-04-09T13:56:23;6.50;;;6.00;;
11016;SDS011;54687;50.800;6.772;2023-04-09T13:58:51;6.43;;;5.85;;
11016;SDS011;54687;50.800;6.772;2023-04-09T14:01:18;6.40;;;5.75;;
11016;SDS011;54687;50.800;6.772;2023-04-09T14:03:44;6.35;;;5.85;;
11016;SDS011;54687;50.800;6.772;2023-04-09T14:06:11;6.30;;;5.80;;
11016;SDS011;54687;50.800;6.772;2023-04-09T14:08:37;6.85;;;6.25;;
11016;SDS011;54687;50.800;6.772;2023-04-09T14:11:04;6.00;;;5.50;;
11016;SDS011;54687;50.800;6.772;2023-04-09T14:13:32;6.03;;;5.45;;
11016;SDS011;54687;50.800;6.772;2023-04-09T14:15:59;5.97;;;5.47;;
11016;SDS011;54687;50.800;6.772;2023-04-09T14:18:25;5.30;;;4.90;;
11016;SDS011;54687;50.800;6.772;2023-04-09T14:20:52;5.72;;;5.32;;
11016;SDS011;54687;50.800;6.772;2023-04-09T14:23:19;6.18;;;5.63;;
11016;SDS011;54687;50.800;6.772;2023-04-09T14:25:46;5.78;;;5.38;;
11016;SDS011;54687;50.800;6.772;2023-04-09T14:28:13;6.00;;;5.50;;
11016;SDS011;54687;50.800;6.772;2023-04-09T14:30:41;6.32;;;5.82;;
11016;SDS011;54687;50.800;6.772;2023-04-09T14:33:07;6.50;;;6.00;;
11016;SDS011;54687;50.800;6.772;2023-04-09T14:35:34;6.00;;;5.50;;
11016;SDS011;54687;50.800;6.772;2023-04-09T14:38:01;5.95;;;5.53;;